createdAt,value
2019-05-15T00:01:43.175Z,5.10
2019-05-15T00:04:13.336Z,4.90
2019-05-15T00:06:48.614Z,5.10
2019-05-15T00:09:19.080Z,5.10
2019-05-15T00:11:49.648Z,4.70
2019-05-15T00:14:19.871Z,4.70
2019-05-15T00:16:50.049Z,4.93
2019-05-15T00:19:20.219Z,5.07
2019-05-15T00:21:50.389Z,5.10
2019-05-15T00:24:20.558Z,5.60
2019-05-15T00:26:54.032Z,5.93
2019-05-15T00:29:24.186Z,5.97
2019-05-15T00:31:54.917Z,5.53
2019-05-15T00:34:25.071Z,5.87
2019-05-15T00:36:55.584Z,6.10
2019-05-15T00:39:25.721Z,6.10
2019-05-15T00:41:55.982Z,6.40
2019-05-15T00:44:28.045Z,6.17
2019-05-15T00:46:58.394Z,6.50
2019-05-15T00:49:28.965Z,6.03
2019-05-15T00:51:59.247Z,6.30
2019-05-15T00:54:30.213Z,6.53
2019-05-15T00:57:02.494Z,6.50
2019-05-15T00:59:32.586Z,6.67
2019-05-15T01:02:02.717Z,6.40
2019-05-15T01:04:32.802Z,7.23
2019-05-15T01:07:02.920Z,7.03
2019-05-15T01:09:33.230Z,7.17
2019-05-15T01:12:03.301Z,7.43
2019-05-15T01:14:33.395Z,7.17
2019-05-15T01:17:03.488Z,6.73
2019-05-15T01:19:33.520Z,7.03
2019-05-15T01:22:03.852Z,7.33
2019-05-15T01:24:33.879Z,7.30
2019-05-15T01:27:04.079Z,8.03
2019-05-15T01:29:41.842Z,7.03
2019-05-15T01:32:08.361Z,7.90
2019-05-15T01:34:38.395Z,7.17
2019-05-15T01:37:08.732Z,7.43
2019-05-15T01:39:38.958Z,8.30
2019-05-15T01:42:15.659Z,7.87
2019-05-15T01:44:45.656Z,7.50
2019-05-15T01:47:15.700Z,8.00
2019-05-15T01:49:45.718Z,7.53
2019-05-15T01:52:15.797Z,8.00
2019-05-15T01:54:45.837Z,7.03
2019-05-15T01:57:18.066Z,7.60
2019-05-15T01:59:57.167Z,7.90
2019-05-15T02:02:19.897Z,7.87
2019-05-15T02:04:54.083Z,7.83
2019-05-15T02:07:24.142Z,7.60
2019-05-15T02:09:54.223Z,8.17
2019-05-15T02:12:24.389Z,8.57
2019-05-15T02:14:54.423Z,7.33
2019-05-15T02:17:24.484Z,8.20
2019-05-15T02:19:58.746Z,7.80
2019-05-15T02:22:29.512Z,8.10
2019-05-15T02:25:02.706Z,8.00
2019-05-15T02:27:32.739Z,7.97
2019-05-15T02:30:21.108Z,8.10
2019-05-15T02:32:34.669Z,7.60
2019-05-15T02:35:04.918Z,8.47
2019-05-15T02:37:40.353Z,8.57
2019-05-15T02:40:14.042Z,8.33
2019-05-15T02:42:44.402Z,9.30
2019-05-15T02:45:14.726Z,9.30
2019-05-15T02:47:44.782Z,8.17
2019-05-15T02:50:15.230Z,8.83
2019-05-15T02:52:45.772Z,9.00
2019-05-15T02:55:16.110Z,9.03
2019-05-15T02:57:49.436Z,9.90
2019-05-15T03:00:36.737Z,9.37
2019-05-15T03:02:52.463Z,9.97
2019-05-15T03:05:22.481Z,9.93
2019-05-15T03:07:55.022Z,10.53
2019-05-15T03:10:25.243Z,10.37
2019-05-15T03:12:55.407Z,10.17
2019-05-15T03:15:28.196Z,9.63
2019-05-15T03:18:00.258Z,10.40
2019-05-15T03:20:30.213Z,11.37
2019-05-15T03:23:00.480Z,9.67
2019-05-15T03:25:30.606Z,10.87
2019-05-15T03:28:00.777Z,10.97
2019-05-15T03:30:32.156Z,11.00
2019-05-15T03:33:11.529Z,10.60
2019-05-15T03:35:35.373Z,10.47
2019-05-15T03:38:05.616Z,10.77
2019-05-15T03:40:39.576Z,10.70
2019-05-15T03:43:09.448Z,10.53
2019-05-15T03:45:40.751Z,11.33
2019-05-15T03:48:10.994Z,10.97
2019-05-15T03:50:41.010Z,11.93
2019-05-15T03:53:11.297Z,12.80
2019-05-15T03:55:43.084Z,12.27
2019-05-15T03:58:13.366Z,11.90
2019-05-15T04:00:43.412Z,11.80
2019-05-15T04:03:13.575Z,12.67
2019-05-15T04:05:43.660Z,11.07
2019-05-15T04:08:13.715Z,11.60
2019-05-15T04:10:43.745Z,11.57
2019-05-15T04:13:19.686Z,11.53
2019-05-15T04:15:50.211Z,11.37
2019-05-15T04:18:20.382Z,11.53
2019-05-15T04:20:50.896Z,12.10
2019-05-15T04:23:24.557Z,11.13
2019-05-15T04:25:54.981Z,11.93
2019-05-15T04:28:29.325Z,12.30
2019-05-15T04:30:59.592Z,12.27
2019-05-15T04:33:30.061Z,11.30
2019-05-15T04:36:03.243Z,12.07
2019-05-15T04:38:34.891Z,12.00
2019-05-15T04:41:05.026Z,13.20
2019-05-15T04:43:41.351Z,12.67
2019-05-15T04:46:09.786Z,12.63
2019-05-15T04:48:40.460Z,11.33
2019-05-15T04:51:10.618Z,11.63
2019-05-15T04:53:41.063Z,11.07
2019-05-15T04:56:11.261Z,13.00
2019-05-15T04:58:41.451Z,12.73
2019-05-15T05:01:11.616Z,13.77
2019-05-15T05:03:41.938Z,14.47
2019-05-15T05:06:12.371Z,13.97
2019-05-15T05:08:42.624Z,13.73
2019-05-15T05:11:12.846Z,14.23
2019-05-15T05:13:43.283Z,14.33
2019-05-15T05:16:13.588Z,14.20
2019-05-15T05:18:43.963Z,13.93
2019-05-15T05:21:14.021Z,13.53
2019-05-15T05:23:44.448Z,13.50
2019-05-15T05:26:14.934Z,13.93
2019-05-15T05:28:45.408Z,13.23
2019-05-15T05:31:15.662Z,13.17
2019-05-15T05:33:48.507Z,13.37
2019-05-15T05:36:19.196Z,13.63
2019-05-15T05:38:50.879Z,12.93
2019-05-15T05:41:22.875Z,12.63
2019-05-15T05:43:53.275Z,12.80
2019-05-15T05:46:23.461Z,12.30
2019-05-15T05:48:53.524Z,11.77
2019-05-15T05:51:24.229Z,12.47
2019-05-15T05:53:54.409Z,11.60
2019-05-15T05:56:28.773Z,11.70
2019-05-15T05:58:58.822Z,13.03
2019-05-15T06:01:29.228Z,12.13
2019-05-15T06:03:59.411Z,11.03
2019-05-15T06:06:30.842Z,11.23
2019-05-15T06:09:05.600Z,11.00
2019-05-15T06:11:37.968Z,11.73
2019-05-15T06:14:08.797Z,10.60
2019-05-15T06:16:39.116Z,12.13
2019-05-15T06:19:09.305Z,11.03
2019-05-15T06:21:53.775Z,11.77
2019-05-15T06:24:13.060Z,12.37
2019-05-15T06:26:44.374Z,11.27
2019-05-15T06:29:14.427Z,10.57
2019-05-15T06:31:44.656Z,10.13
2019-05-15T06:34:14.735Z,10.40
2019-05-15T06:36:48.629Z,10.47
2019-05-15T06:39:19.005Z,9.87
2019-05-15T06:41:49.319Z,9.97
2019-05-15T06:44:19.431Z,10.47
2019-05-15T06:46:49.541Z,9.77
2019-05-15T06:49:20.031Z,10.10
2019-05-15T06:51:50.175Z,9.80
2019-05-15T06:54:20.819Z,9.13
2019-05-15T06:56:50.924Z,10.07
2019-05-15T06:59:22.681Z,9.13
2019-05-15T07:01:52.845Z,9.60
2019-05-15T07:04:23.028Z,9.60
2019-05-15T07:06:53.093Z,9.40
2019-05-15T07:09:23.452Z,9.30
2019-05-15T07:11:53.548Z,9.83
2019-05-15T07:14:23.695Z,9.43
2019-05-15T07:16:53.986Z,9.43
2019-05-15T07:19:24.204Z,9.30
2019-05-15T07:21:54.610Z,8.93
2019-05-15T07:24:24.972Z,8.43
2019-05-15T07:26:55.142Z,8.80
2019-05-15T07:29:25.353Z,8.90
2019-05-15T07:31:55.431Z,8.53
2019-05-15T07:34:25.646Z,8.53
2019-05-15T07:36:55.723Z,8.50
2019-05-15T07:39:28.704Z,8.83
2019-05-15T07:41:58.411Z,7.97
2019-05-15T07:44:28.549Z,8.90
2019-05-15T07:46:58.719Z,8.47
2019-05-15T07:49:29.003Z,8.07
2019-05-15T07:51:59.318Z,8.10
2019-05-15T07:54:29.656Z,8.20
2019-05-15T07:56:59.795Z,7.30
2019-05-15T07:59:31.701Z,7.63
2019-05-15T08:02:01.772Z,7.53
2019-05-15T08:04:33.077Z,7.20
2019-05-15T08:07:03.503Z,6.90
2019-05-15T08:09:38.918Z,6.77
2019-05-15T08:12:09.002Z,6.00
2019-05-15T08:14:58.387Z,5.70
2019-05-15T08:17:29.117Z,5.50
2019-05-15T08:19:59.338Z,5.87
2019-05-15T08:22:29.624Z,4.70
2019-05-15T08:24:59.782Z,4.50
2019-05-15T08:27:49.266Z,4.00
2019-05-15T08:30:20.061Z,3.77
2019-05-15T08:32:51.726Z,3.73
2019-05-15T08:35:22.448Z,2.93
2019-05-15T08:37:52.629Z,3.00
2019-05-15T08:40:24.962Z,2.93
2019-05-15T08:43:02.857Z,2.90
2019-05-15T08:45:33.145Z,2.70
2019-05-15T08:48:03.706Z,2.77
2019-05-15T08:50:34.030Z,3.13
2019-05-15T08:53:04.085Z,3.50
2019-05-15T08:55:34.279Z,4.10
2019-05-15T08:58:09.675Z,4.90
2019-05-15T09:00:43.846Z,4.60
2019-05-15T09:03:15.018Z,4.97
2019-05-15T09:05:45.273Z,4.63
2019-05-15T09:08:15.355Z,5.00
2019-05-15T09:10:45.463Z,4.80
2019-05-15T09:13:18.992Z,4.33
2019-05-15T09:15:49.817Z,4.00
2019-05-15T09:18:22.967Z,3.80
2019-05-15T09:20:55.658Z,3.13
2019-05-15T09:23:28.736Z,3.03
2019-05-15T09:25:58.012Z,3.50
2019-05-15T09:28:29.651Z,3.10
2019-05-15T09:31:00.236Z,2.97
2019-05-15T09:33:30.535Z,3.20
2019-05-15T09:36:01.060Z,3.00
2019-05-15T09:38:31.359Z,3.03
2019-05-15T09:41:02.272Z,2.90
2019-05-15T09:43:32.392Z,2.83
2019-05-15T09:46:02.483Z,3.37
2019-05-15T09:48:32.598Z,3.00
2019-05-15T09:51:02.693Z,3.37
2019-05-15T09:53:32.802Z,3.40
2019-05-15T09:56:03.338Z,3.40
2019-05-15T09:58:33.471Z,3.33
2019-05-15T10:01:03.674Z,3.20
2019-05-15T10:03:33.838Z,3.40
2019-05-15T10:06:04.012Z,3.50
2019-05-15T10:08:34.747Z,3.40
2019-05-15T10:11:08.882Z,3.80
2019-05-15T10:13:38.576Z,3.30
2019-05-15T10:16:08.840Z,3.50
2019-05-15T10:18:39.334Z,3.40
2019-05-15T10:21:11.464Z,3.60
2019-05-15T10:23:41.624Z,3.47
2019-05-15T10:26:14.254Z,3.80
2019-05-15T10:28:43.643Z,4.00
2019-05-15T10:31:14.026Z,3.90
2019-05-15T10:33:44.377Z,3.60
2019-05-15T10:36:14.641Z,3.53
2019-05-15T10:38:44.790Z,3.60
2019-05-15T10:41:15.402Z,3.63
2019-05-15T10:43:54.607Z,3.67
2019-05-15T10:46:18.994Z,3.70
2019-05-15T10:48:49.659Z,3.30
2019-05-15T10:51:20.006Z,3.80
2019-05-15T10:53:50.222Z,3.57
2019-05-15T10:56:20.275Z,3.20
2019-05-15T10:58:50.762Z,3.00
2019-05-15T11:01:21.145Z,2.80
2019-05-15T11:03:51.285Z,3.00
2019-05-15T11:06:21.383Z,3.20
2019-05-15T11:08:51.739Z,3.27
2019-05-15T11:11:23.140Z,3.50
2019-05-15T11:13:53.311Z,3.10
2019-05-15T11:16:23.507Z,3.00
2019-05-15T11:18:53.728Z,2.43
2019-05-15T11:21:24.088Z,2.90
2019-05-15T11:23:54.357Z,2.90
2019-05-15T11:26:24.474Z,3.07
2019-05-15T11:28:54.698Z,3.33
2019-05-15T11:31:25.098Z,2.60
2019-05-15T11:33:55.564Z,2.90
2019-05-15T11:36:25.908Z,2.60
2019-05-15T11:38:56.028Z,2.90
2019-05-15T11:41:29.224Z,2.70
2019-05-15T11:43:58.097Z,2.80
2019-05-15T11:46:29.094Z,2.90
2019-05-15T11:48:59.421Z,2.63
2019-05-15T11:51:29.542Z,2.80
2019-05-15T11:53:59.616Z,2.73
2019-05-15T11:56:29.821Z,2.50
2019-05-15T11:59:00.000Z,2.67
2019-05-15T12:01:30.142Z,2.30
2019-05-15T12:04:00.337Z,2.10
2019-05-15T12:06:31.261Z,2.37
2019-05-15T12:09:01.337Z,2.20
2019-05-15T12:11:36.906Z,2.40
2019-05-15T12:14:03.436Z,2.30
2019-05-15T12:16:36.188Z,2.03
2019-05-15T12:19:09.520Z,2.20
2019-05-15T12:21:39.629Z,2.30
2019-05-15T12:24:09.261Z,2.30
2019-05-15T12:26:40.851Z,2.00
2019-05-15T12:29:12.878Z,2.10
2019-05-15T12:31:42.721Z,2.30
2019-05-15T12:34:13.289Z,2.50
2019-05-15T12:36:51.665Z,2.20
2019-05-15T12:39:20.699Z,2.13
2019-05-15T12:59:41.093Z,1.80
2019-05-15T13:02:05.261Z,2.00
2019-05-15T13:04:35.374Z,2.10
2019-05-15T13:07:15.784Z,2.30
2019-05-15T13:09:38.147Z,2.10
2019-05-15T13:12:08.646Z,2.10
2019-05-15T13:14:39.055Z,2.10
2019-05-15T13:17:09.399Z,2.17
2019-05-15T13:19:39.544Z,2.20
2019-05-15T13:22:17.548Z,2.17
2019-05-15T13:24:41.599Z,1.93
2019-05-15T13:27:11.772Z,1.77
2019-05-15T13:29:41.946Z,1.90
2019-05-15T13:32:12.101Z,1.70
2019-05-15T13:34:42.298Z,1.83
2019-05-15T13:37:25.169Z,2.00
2019-05-15T13:39:44.367Z,1.90
2019-05-15T13:42:14.507Z,1.83
2019-05-15T13:44:44.711Z,1.77
2019-05-15T13:47:14.774Z,1.90
2019-05-15T13:49:44.826Z,2.07
2019-05-15T13:52:14.984Z,2.00
2019-05-15T13:54:45.077Z,2.00
2019-05-15T13:57:15.148Z,2.00
2019-05-15T13:59:47.857Z,1.80
2019-05-15T14:02:18.684Z,1.70
2019-05-15T14:04:49.269Z,1.80
2019-05-15T14:07:19.762Z,1.77
2019-05-15T14:09:50.263Z,1.93
2019-05-15T14:12:20.644Z,1.80
2019-05-15T14:14:53.117Z,1.97
2019-05-15T14:17:23.233Z,2.07
2019-05-15T14:19:53.308Z,1.90
2019-05-15T14:22:23.482Z,1.80
2019-05-15T14:24:53.581Z,1.77
2019-05-15T14:27:25.563Z,1.90
2019-05-15T14:29:58.067Z,1.90
2019-05-15T14:32:38.416Z,1.80
2019-05-15T14:34:59.477Z,1.90
2019-05-15T14:37:32.081Z,1.90
2019-05-15T14:40:02.220Z,2.00
2019-05-15T14:42:32.408Z,2.10
2019-05-15T14:45:02.514Z,2.10
2019-05-15T14:47:32.695Z,2.10
2019-05-15T14:50:02.863Z,2.30
2019-05-15T14:52:33.211Z,2.20
2019-05-15T14:55:03.404Z,1.90
2019-05-15T14:57:33.575Z,2.20
2019-05-15T15:00:04.185Z,2.20
2019-05-15T15:02:34.296Z,2.10
2019-05-15T15:05:04.581Z,2.17
2019-05-15T15:07:37.976Z,2.30
2019-05-15T15:10:08.506Z,2.20
2019-05-15T15:12:39.807Z,2.30
2019-05-15T15:15:10.755Z,2.23
2019-05-15T15:17:40.924Z,2.30
2019-05-15T15:20:11.188Z,2.00
2019-05-15T15:22:41.959Z,2.30
2019-05-15T15:25:12.021Z,2.42
2019-05-15T15:27:42.280Z,2.20
2019-05-15T15:30:15.631Z,2.22
2019-05-15T15:32:48.578Z,2.47
2019-05-15T15:35:17.872Z,2.30
2019-05-15T15:37:48.665Z,2.30
2019-05-15T15:40:19.582Z,2.17
2019-05-15T15:42:49.788Z,2.60
2019-05-15T15:45:20.141Z,2.50
2019-05-15T15:47:52.013Z,2.40
2019-05-15T15:50:25.693Z,2.90
2019-05-15T15:52:55.832Z,2.80
2019-05-15T15:55:25.888Z,2.80
2019-05-15T15:57:55.990Z,2.83
2019-05-15T16:00:28.412Z,2.77
2019-05-15T16:02:58.118Z,2.92
2019-05-15T16:05:29.195Z,2.70
2019-05-15T16:07:59.499Z,2.42
2019-05-15T16:10:29.839Z,2.60
2019-05-15T16:13:00.103Z,2.58
2019-05-15T16:15:30.438Z,2.70
2019-05-15T16:18:00.499Z,2.72
2019-05-15T16:20:49.024Z,2.67
2019-05-15T16:23:19.312Z,2.80
2019-05-15T16:25:49.348Z,2.45
2019-05-15T16:28:19.665Z,2.55
2019-05-15T16:30:51.497Z,2.50
2019-05-15T16:33:21.630Z,2.70
2019-05-15T16:35:51.801Z,2.60
2019-05-15T16:38:22.029Z,2.40
2019-05-15T16:40:52.167Z,2.75
2019-05-15T16:43:22.424Z,2.20
2019-05-15T16:45:52.577Z,2.50
2019-05-15T16:48:22.731Z,2.52
2019-05-15T16:50:52.841Z,2.62
2019-05-15T16:53:22.933Z,2.67
2019-05-15T16:55:53.459Z,2.60
2019-05-15T16:58:23.819Z,2.47
2019-05-15T17:00:53.908Z,2.50
2019-05-15T17:03:24.151Z,2.50
2019-05-15T17:05:54.218Z,2.40
2019-05-15T17:08:24.399Z,2.27
2019-05-15T17:10:54.968Z,3.12
2019-05-15T17:13:25.181Z,2.80
2019-05-15T17:15:55.347Z,2.60
2019-05-15T17:18:25.623Z,2.60
2019-05-15T17:20:55.759Z,2.75
2019-05-15T17:23:27.699Z,2.50
2019-05-15T17:25:58.241Z,2.58
2019-05-15T17:28:29.154Z,2.58
2019-05-15T17:30:59.377Z,2.58
2019-05-15T17:33:29.769Z,2.60
2019-05-15T17:35:59.959Z,2.45
2019-05-15T17:38:30.187Z,2.37
2019-05-15T17:41:00.325Z,2.22
2019-05-15T17:43:30.776Z,2.55
2019-05-15T17:46:00.874Z,2.60
2019-05-15T17:48:31.033Z,2.80
2019-05-15T17:51:03.042Z,2.60
2019-05-15T17:53:33.319Z,2.50
2019-05-15T17:56:03.387Z,2.50
2019-05-15T17:58:33.587Z,2.70
2019-05-15T18:01:04.010Z,2.37
2019-05-15T18:03:34.551Z,2.30
2019-05-15T18:06:04.767Z,2.40
2019-05-15T18:08:34.933Z,2.63
2019-05-15T18:11:05.114Z,2.30
2019-05-15T18:13:35.288Z,2.30
2019-05-15T18:16:05.509Z,2.60
2019-05-15T18:18:35.656Z,2.20
2019-05-15T18:21:05.792Z,2.27
2019-05-15T18:23:36.034Z,2.50
2019-05-15T18:26:09.075Z,2.33
2019-05-15T18:28:39.072Z,2.40
2019-05-15T18:31:09.586Z,2.40
2019-05-15T18:33:53.098Z,2.43
2019-05-15T18:36:12.173Z,2.53
2019-05-15T18:38:42.808Z,2.40
2019-05-15T18:41:13.297Z,2.27
2019-05-15T18:43:43.523Z,2.47
2019-05-15T18:46:13.972Z,2.20
2019-05-15T18:48:45.013Z,2.10
2019-05-15T18:51:15.346Z,2.40
2019-05-15T18:53:48.049Z,2.30
2019-05-15T18:56:18.749Z,2.47
2019-05-15T18:58:49.382Z,2.87
2019-05-15T19:01:19.649Z,2.70
2019-05-15T19:03:49.954Z,2.40
2019-05-15T19:06:20.178Z,2.23
2019-05-15T19:08:53.102Z,2.20
2019-05-15T19:11:22.725Z,2.63
2019-05-15T19:13:53.927Z,2.50
2019-05-15T19:16:24.253Z,2.23
2019-05-15T19:18:54.949Z,2.30
2019-05-15T19:21:27.754Z,1.93
2019-05-15T19:23:58.445Z,2.23
2019-05-15T19:26:29.492Z,2.40
2019-05-15T19:29:00.304Z,2.20
2019-05-15T19:31:31.212Z,2.20
2019-05-15T19:34:02.433Z,2.30
2019-05-15T19:36:33.047Z,2.60
2019-05-15T19:39:07.927Z,2.53
2019-05-15T19:41:38.323Z,2.20
2019-05-15T19:44:08.916Z,1.87
2019-05-15T19:46:39.506Z,2.80
2019-05-15T19:49:09.943Z,6.83
2019-05-15T19:51:41.257Z,4.73
2019-05-15T19:54:11.409Z,2.90
2019-05-15T19:56:41.604Z,2.37
2019-05-15T19:59:12.021Z,2.40
2019-05-15T20:01:42.613Z,2.03
2019-05-15T20:04:13.219Z,2.10
2019-05-15T20:06:43.753Z,2.40
2019-05-15T20:09:14.397Z,2.10
2019-05-15T20:11:44.627Z,2.10
2019-05-15T20:14:15.006Z,2.10
2019-05-15T20:16:48.077Z,2.03
2019-05-15T20:19:18.446Z,2.37
2019-05-15T20:21:49.231Z,2.13
2019-05-15T20:24:19.492Z,2.40
2019-05-15T20:26:49.819Z,2.20
2019-05-15T20:29:19.991Z,2.23
2019-05-15T20:31:50.093Z,3.67
2019-05-15T20:34:20.303Z,3.50
2019-05-15T20:36:51.092Z,2.80
2019-05-15T20:39:23.142Z,3.00
2019-05-15T20:41:53.302Z,2.60
2019-05-15T20:44:25.084Z,2.57
2019-05-15T20:46:55.224Z,2.53
2019-05-15T20:49:25.682Z,2.67
2019-05-15T20:51:58.088Z,2.80
2019-05-15T20:54:28.435Z,2.67
2019-05-15T20:56:58.716Z,2.70
2019-05-15T20:59:28.985Z,2.40
2019-05-15T21:01:59.499Z,2.70
2019-05-15T21:04:29.985Z,2.50
2019-05-15T21:07:00.164Z,3.30
2019-05-15T21:09:30.665Z,3.00
2019-05-15T21:12:01.018Z,2.80
2019-05-15T21:14:31.160Z,2.80
2019-05-15T21:17:01.318Z,2.90
2019-05-15T21:19:31.541Z,2.57
2019-05-15T21:22:01.634Z,2.60
2019-05-15T21:24:31.857Z,2.60
2019-05-15T21:27:02.107Z,2.60
2019-05-15T21:29:32.567Z,2.90
2019-05-15T21:32:02.800Z,2.70
2019-05-15T21:34:37.725Z,2.90
2019-05-15T21:37:04.889Z,2.50
2019-05-15T21:39:35.086Z,2.57
2019-05-15T21:42:05.236Z,2.87
2019-05-15T21:44:38.121Z,2.70
2019-05-15T21:47:08.209Z,2.70
2019-05-15T21:49:38.867Z,3.17
2019-05-15T21:52:09.062Z,2.87
2019-05-15T21:54:39.145Z,2.80
2019-05-15T21:57:29.386Z,2.93
2019-05-15T21:59:41.356Z,2.80
2019-05-15T22:02:12.767Z,2.50
2019-05-15T22:04:52.744Z,2.80
2019-05-15T22:07:14.771Z,2.70
2019-05-15T22:09:45.002Z,3.00
2019-05-15T22:12:15.112Z,2.70
2019-05-15T22:14:45.766Z,2.50
2019-05-15T22:17:18.687Z,2.57
2019-05-15T22:19:49.094Z,2.37
2019-05-15T22:22:19.415Z,2.77
2019-05-15T22:24:49.943Z,2.40
2019-05-15T22:27:21.059Z,2.50
2019-05-15T22:29:51.667Z,2.50
2019-05-15T22:32:21.884Z,2.47
2019-05-15T22:35:05.699Z,2.57
2019-05-15T22:37:23.824Z,2.70
2019-05-15T22:39:53.982Z,2.80
2019-05-15T22:42:24.022Z,3.10
2019-05-15T22:44:54.228Z,2.90
2019-05-15T22:47:24.257Z,2.83
2019-05-15T22:49:54.416Z,2.87
2019-05-15T22:52:24.750Z,2.70
2019-05-15T22:54:54.822Z,2.80
2019-05-15T22:57:24.932Z,2.90
2019-05-15T22:59:55.053Z,2.77
2019-05-15T23:02:25.325Z,2.70
2019-05-15T23:04:55.381Z,2.97
2019-05-15T23:07:28.005Z,2.83
2019-05-15T23:09:58.317Z,2.90
2019-05-15T23:12:28.767Z,2.80
2019-05-15T23:14:59.073Z,2.70
2019-05-15T23:17:29.321Z,2.70
2019-05-15T23:19:59.564Z,3.23
2019-05-15T23:22:29.993Z,2.87
2019-05-15T23:25:00.058Z,2.70
2019-05-15T23:27:30.265Z,2.83
2019-05-15T23:30:00.379Z,3.20
2019-05-15T23:32:30.508Z,3.23
2019-05-15T23:35:00.714Z,2.97
2019-05-15T23:37:30.912Z,3.33
2019-05-15T23:40:01.095Z,3.10
2019-05-15T23:42:31.454Z,3.00
2019-05-15T23:45:01.507Z,3.30
2019-05-15T23:47:32.180Z,3.30
2019-05-15T23:50:02.228Z,3.30
2019-05-15T23:52:32.380Z,3.20
2019-05-15T23:55:02.495Z,3.60
2019-05-15T23:57:32.517Z,3.40
